Warsaw, Missouri
Current Conditions -  °F | °C
As of 10:35 AM on Thursday 29 Jan 2015 (Local Time) from KGLY Reporting Station
Overcast Overcast  
Wind Chill: 30°   Ceiling: 2400
Heat Index: 39°   Visibility: 10mi
Dew Point: 32°   Wind: 17mph
Humidity: 75%   Direction: 320°NW
Pressure: 30.31"   Gusts: 21mph
Location:  38.24°N, 93.38°W
Report Text: KGLY 291635Z AUTO 32015G18KT 10SM OVC024 04/00 A3031 RMK AO2
Loading
Personal Weather Stations






























Interactive Weather Map New forecast layout! Learn more

10-Day Weather Forecast

Advertisements
Track Severe Weather on mobile